Terminal Aerodrome Forecast
Issued by NWS

Home | Current Version | Previous Version | Text Only | Print | Product List | Glossary On
Versions: 1 2 3 4 5 6 7 8 9 10 11 12 13 14 15 16 17 18 19 20
000
FTUS42 KTBW 080522
TAFLAL
TAF
KLAL 080522Z 0806/0906 34003KT P6SM FEW020 SCT300
     FM080700 36003KT P6SM FEW010 SCT300
     FM081000 VRB03KT 3SM BR SCT010
     FM081400 36007KT P6SM SCT015 SCT100
     FM081800 35007KT P6SM SCT030 SCT090 SCT150
      AMD NOT SKED TIL 081100=

USA.gov is the U.S. government's official web portal to all federal, state and local government web resources and services.